GAP2985 RPLL-RPVA
Flight info
| Callsign | GAP2985 |
|---|---|
| Flight time | 0h 53m |
| Altitude | 37000 |
| Route | IPATA2R IPATA B462 ARREX ARREX2R |
| Aircraft | A320/M-SDE3FGHIRWY/LB1 |
Departure
| Time | 2026-05-04 08:57 |
|---|---|
| Airport | Ninoy Aquino International Airport (RPLL) |
Arrival
| Time | 2026-05-04 09:51 |
|---|---|
| Airport | Daniel Z. Romualdez Airport (RPVA) |
| Time | Latitude | Longitude | Altitude | Speed | Heading |
|---|---|---|---|---|---|
| 2026-05-04 08:40 | 14.51087 | 121.01356 | 82 ft | 0 kts | 220° |
| 2026-05-04 08:44 | 14.51090 | 121.01359 | 82 ft | 2 kts | 221° |
| 2026-05-04 08:44 | 14.51101 | 121.01369 | 82 ft | 2 kts | 220° |
| 2026-05-04 08:46 | 14.51172 | 121.01376 | 82 ft | 0 kts | 133° |
| 2026-05-04 08:47 | 14.51169 | 121.01379 | 82 ft | 1 kts | 133° |
| 2026-05-04 08:47 | 14.51161 | 121.01388 | 82 ft | 2 kts | 133° |
| 2026-05-04 08:48 | 14.51147 | 121.01403 | 82 ft | 3 kts | 135° |
| 2026-05-04 08:48 | 14.51126 | 121.01424 | 82 ft | 4 kts | 135° |
| 2026-05-04 08:48 | 14.51100 | 121.01451 | 82 ft | 6 kts | 134° |
| 2026-05-04 08:48 | 14.51067 | 121.01485 | 82 ft | 7 kts | 134° |
| 2026-05-04 08:49 | 14.51029 | 121.01526 | 82 ft | 8 kts | 134° |
| 2026-05-04 08:50 | 14.50809 | 121.01571 | 82 ft | 8 kts | 240° |
| 2026-05-04 08:50 | 14.50774 | 121.01508 | 82 ft | 11 kts | 240° |
| 2026-05-04 08:51 | 14.50729 | 121.01426 | 82 ft | 14 kts | 240° |
| 2026-05-04 08:51 | 14.50674 | 121.01327 | 82 ft | 17 kts | 241° |
| 2026-05-04 08:51 | 14.50611 | 121.01215 | 82 ft | 19 kts | 240° |
| 2026-05-04 08:51 | 14.50540 | 121.01087 | 82 ft | 21 kts | 240° |
| 2026-05-04 08:52 | 14.50467 | 121.00954 | 82 ft | 21 kts | 241° |
| 2026-05-04 08:52 | 14.50393 | 121.00822 | 82 ft | 21 kts | 240° |
| 2026-05-04 08:52 | 14.50320 | 121.00691 | 82 ft | 21 kts | 240° |
| 2026-05-04 08:52 | 14.50248 | 121.00560 | 82 ft | 20 kts | 240° |
| 2026-05-04 08:53 | 14.50175 | 121.00430 | 82 ft | 20 kts | 240° |
| 2026-05-04 08:54 | 14.49802 | 121.00028 | 82 ft | 8 kts | 96° |
| 2026-05-04 08:55 | 14.49828 | 121.00091 | 82 ft | 10 kts | 61° |
| 2026-05-04 08:55 | 14.49882 | 121.00188 | 82 ft | 35 kts | 60° |
| 2026-05-04 08:55 | 14.50137 | 121.00646 | 82 ft | 107 kts | 60° |
| 2026-05-04 08:55 | 14.50600 | 121.01482 | 111 ft | 159 kts | 60° |
| 2026-05-04 08:57 | 14.54825 | 121.09106 | 3005 ft | 221 kts | 60° |
| 2026-05-04 09:01 | 14.38745 | 121.29511 | 11464 ft | 315 kts | 133° |
| 2026-05-04 09:01 | 14.37124 | 121.31128 | 11740 ft | 331 kts | 133° |
| 2026-05-04 09:01 | 14.35440 | 121.32806 | 11965 ft | 345 kts | 134° |
| 2026-05-04 09:01 | 14.33671 | 121.34568 | 12193 ft | 359 kts | 134° |
| 2026-05-04 09:02 | 14.31841 | 121.36390 | 12431 ft | 372 kts | 134° |
| 2026-05-04 09:02 | 14.29947 | 121.38275 | 12673 ft | 383 kts | 134° |
| 2026-05-04 09:02 | 14.28004 | 121.40205 | 13115 ft | 388 kts | 134° |
| 2026-05-04 09:02 | 14.26060 | 121.42139 | 13596 ft | 390 kts | 134° |
| 2026-05-04 09:03 | 14.24112 | 121.44076 | 14083 ft | 392 kts | 134° |
| 2026-05-04 09:03 | 14.22140 | 121.46035 | 14556 ft | 394 kts | 134° |
| 2026-05-04 09:03 | 14.20152 | 121.48013 | 14998 ft | 396 kts | 134° |
| 2026-05-04 09:03 | 14.18182 | 121.49971 | 15438 ft | 398 kts | 134° |
| 2026-05-04 09:04 | 14.16188 | 121.51954 | 15857 ft | 400 kts | 134° |
| 2026-05-04 09:04 | 14.14156 | 121.53973 | 16272 ft | 402 kts | 134° |
| 2026-05-04 09:04 | 14.12161 | 121.55955 | 16674 ft | 404 kts | 134° |
| 2026-05-04 09:04 | 14.10127 | 121.57976 | 17040 ft | 406 kts | 134° |
| 2026-05-04 09:05 | 14.08087 | 121.60002 | 17401 ft | 409 kts | 134° |
| 2026-05-04 09:05 | 14.06022 | 121.62052 | 17753 ft | 410 kts | 134° |
| 2026-05-04 09:05 | 14.03956 | 121.64103 | 18116 ft | 413 kts | 134° |
| 2026-05-04 09:05 | 14.01904 | 121.66140 | 18447 ft | 415 kts | 135° |
| 2026-05-04 09:06 | 13.99823 | 121.68206 | 18750 ft | 417 kts | 135° |
| 2026-05-04 09:07 | 13.85149 | 121.83088 | 20765 ft | 430 kts | 130° |
| 2026-05-04 09:08 | 13.83210 | 121.85441 | 20959 ft | 433 kts | 129° |
| 2026-05-04 09:08 | 13.81246 | 121.87843 | 21242 ft | 434 kts | 129° |
| 2026-05-04 09:08 | 13.79328 | 121.90195 | 21600 ft | 433 kts | 129° |
| 2026-05-04 09:08 | 13.77385 | 121.92577 | 21952 ft | 431 kts | 129° |
| 2026-05-04 09:09 | 13.75468 | 121.94926 | 22266 ft | 431 kts | 129° |
| 2026-05-04 09:09 | 13.73528 | 121.97303 | 22583 ft | 432 kts | 129° |
| 2026-05-04 09:09 | 13.71601 | 121.99663 | 22928 ft | 431 kts | 129° |
| 2026-05-04 09:09 | 13.69678 | 122.02019 | 23273 ft | 430 kts | 129° |
| 2026-05-04 09:10 | 13.67760 | 122.04367 | 23604 ft | 430 kts | 129° |
| 2026-05-04 09:10 | 13.65840 | 122.06717 | 23950 ft | 430 kts | 130° |
| 2026-05-04 09:10 | 13.63925 | 122.09058 | 24311 ft | 429 kts | 130° |
| 2026-05-04 09:10 | 13.62010 | 122.11398 | 24665 ft | 428 kts | 130° |
| 2026-05-04 09:11 | 13.60090 | 122.13744 | 25006 ft | 428 kts | 130° |
| 2026-05-04 09:11 | 13.58155 | 122.16108 | 25372 ft | 428 kts | 130° |
| 2026-05-04 09:11 | 13.56262 | 122.18420 | 25723 ft | 427 kts | 130° |
| 2026-05-04 09:11 | 13.54343 | 122.20764 | 26077 ft | 427 kts | 130° |
| 2026-05-04 09:12 | 13.52431 | 122.23099 | 26442 ft | 426 kts | 130° |
| 2026-05-04 09:12 | 13.50522 | 122.25429 | 26800 ft | 425 kts | 130° |
| 2026-05-04 09:14 | 13.37270 | 122.41590 | 29250 ft | 422 kts | 130° |
| 2026-05-04 09:14 | 13.35369 | 122.43907 | 29600 ft | 421 kts | 130° |
| 2026-05-04 09:14 | 13.33491 | 122.46195 | 29971 ft | 420 kts | 130° |
| 2026-05-04 09:14 | 13.31619 | 122.48473 | 30329 ft | 420 kts | 130° |
| 2026-05-04 09:15 | 13.29719 | 122.50786 | 30687 ft | 419 kts | 130° |
| 2026-05-04 09:15 | 13.27844 | 122.53066 | 31031 ft | 419 kts | 130° |
| 2026-05-04 09:15 | 13.25984 | 122.55329 | 31372 ft | 418 kts | 130° |
| 2026-05-04 09:15 | 13.24110 | 122.57608 | 31713 ft | 418 kts | 130° |
| 2026-05-04 09:17 | 13.09155 | 122.75772 | 34564 ft | 414 kts | 131° |
| 2026-05-04 09:18 | 13.07290 | 122.78036 | 34918 ft | 414 kts | 130° |
| 2026-05-04 09:18 | 13.05452 | 122.80264 | 35255 ft | 413 kts | 130° |
| 2026-05-04 09:18 | 13.03605 | 122.82505 | 35575 ft | 412 kts | 130° |
| 2026-05-04 09:18 | 13.01739 | 122.84768 | 35865 ft | 412 kts | 130° |
| 2026-05-04 09:19 | 12.99885 | 122.87015 | 36145 ft | 412 kts | 130° |
| 2026-05-04 09:19 | 12.98037 | 122.89253 | 36409 ft | 412 kts | 130° |
| 2026-05-04 09:19 | 12.96190 | 122.91492 | 36663 ft | 412 kts | 130° |
| 2026-05-04 09:19 | 12.94354 | 122.93716 | 36813 ft | 414 kts | 130° |
| 2026-05-04 09:20 | 12.90601 | 122.98261 | 36923 ft | 422 kts | 130° |
| 2026-05-04 09:20 | 12.86739 | 123.02934 | 36927 ft | 432 kts | 130° |
| 2026-05-04 09:21 | 12.82809 | 123.07686 | 36925 ft | 441 kts | 130° |
| 2026-05-04 09:21 | 12.78804 | 123.12528 | 36927 ft | 450 kts | 130° |
| 2026-05-04 09:22 | 12.74746 | 123.17429 | 36926 ft | 457 kts | 130° |
| 2026-05-04 09:22 | 12.70605 | 123.22431 | 36926 ft | 463 kts | 130° |
| 2026-05-04 09:23 | 12.66419 | 123.27483 | 36927 ft | 468 kts | 130° |
| 2026-05-04 09:23 | 12.62190 | 123.32586 | 36929 ft | 472 kts | 130° |
| 2026-05-04 09:25 | 12.45122 | 123.53153 | 36931 ft | 474 kts | 130° |
| 2026-05-04 09:26 | 12.40860 | 123.58286 | 36928 ft | 475 kts | 130° |
| 2026-05-04 09:26 | 12.36571 | 123.63448 | 36930 ft | 474 kts | 130° |
| 2026-05-04 09:27 | 12.32353 | 123.68632 | 36930 ft | 474 kts | 130° |
| 2026-05-04 09:27 | 12.28195 | 123.73774 | 36697 ft | 467 kts | 130° |
| 2026-05-04 09:28 | 12.26105 | 123.76356 | 36399 ft | 465 kts | 130° |
| 2026-05-04 09:28 | 12.24064 | 123.78878 | 36109 ft | 462 kts | 130° |
| 2026-05-04 09:28 | 12.22029 | 123.81390 | 35804 ft | 459 kts | 130° |
| 2026-05-04 09:28 | 12.19993 | 123.83903 | 35339 ft | 458 kts | 130° |
| 2026-05-04 09:29 | 12.17951 | 123.86422 | 34728 ft | 458 kts | 130° |
| 2026-05-04 09:29 | 12.15929 | 123.88915 | 34041 ft | 459 kts | 130° |
| 2026-05-04 09:29 | 12.13893 | 123.91425 | 33319 ft | 460 kts | 130° |
| 2026-05-04 09:29 | 12.11864 | 123.93926 | 32580 ft | 461 kts | 130° |
| 2026-05-04 09:30 | 12.09796 | 123.96472 | 31853 ft | 462 kts | 130° |
| 2026-05-04 09:30 | 12.07767 | 123.98968 | 31085 ft | 462 kts | 129° |
| 2026-05-04 09:30 | 12.05710 | 124.01498 | 30269 ft | 462 kts | 129° |
| 2026-05-04 09:30 | 12.03669 | 124.04009 | 29434 ft | 462 kts | 129° |
| 2026-05-04 09:31 | 12.01619 | 124.06532 | 28569 ft | 462 kts | 128° |
| 2026-05-04 09:31 | 11.99569 | 124.09058 | 27696 ft | 462 kts | 128° |
| 2026-05-04 09:31 | 11.97531 | 124.11571 | 26773 ft | 463 kts | 128° |
| 2026-05-04 09:31 | 11.95477 | 124.14102 | 26011 ft | 460 kts | 128° |
| 2026-05-04 09:32 | 11.93452 | 124.16595 | 25450 ft | 458 kts | 128° |
| 2026-05-04 09:32 | 11.91424 | 124.19090 | 24872 ft | 453 kts | 128° |
| 2026-05-04 09:34 | 11.77870 | 124.35721 | 20722 ft | 419 kts | 128° |
| 2026-05-04 09:34 | 11.76017 | 124.37993 | 20154 ft | 415 kts | 128° |
| 2026-05-04 09:34 | 11.74167 | 124.40261 | 19578 ft | 410 kts | 128° |
| 2026-05-04 09:34 | 11.72349 | 124.42490 | 19020 ft | 406 kts | 128° |
| 2026-05-04 09:35 | 11.70571 | 124.44669 | 18457 ft | 402 kts | 128° |
| 2026-05-04 09:35 | 11.68779 | 124.46866 | 17888 ft | 398 kts | 128° |
| 2026-05-04 09:35 | 11.67013 | 124.49030 | 17332 ft | 395 kts | 128° |
| 2026-05-04 09:35 | 11.65275 | 124.51162 | 16779 ft | 391 kts | 128° |
| 2026-05-04 09:37 | 11.53375 | 124.65742 | 12752 ft | 372 kts | 128° |
| 2026-05-04 09:37 | 11.51721 | 124.67760 | 12181 ft | 369 kts | 129° |
| 2026-05-04 09:38 | 11.49946 | 124.69636 | 11632 ft | 367 kts | 136° |
| 2026-05-04 09:38 | 11.48014 | 124.71262 | 11226 ft | 359 kts | 142° |
| 2026-05-04 09:38 | 11.45988 | 124.72709 | 10945 ft | 347 kts | 143° |
| 2026-05-04 09:38 | 11.44029 | 124.74067 | 10719 ft | 335 kts | 144° |
| 2026-05-04 09:39 | 11.42119 | 124.75383 | 10467 ft | 324 kts | 144° |
| 2026-05-04 09:39 | 11.40295 | 124.76643 | 10272 ft | 312 kts | 144° |
| 2026-05-04 09:39 | 11.38527 | 124.77863 | 10123 ft | 292 kts | 144° |
| 2026-05-04 09:39 | 11.36885 | 124.79001 | 10010 ft | 286 kts | 144° |
| 2026-05-04 09:40 | 11.35229 | 124.80150 | 9643 ft | 286 kts | 144° |
| 2026-05-04 09:40 | 11.33579 | 124.81296 | 9276 ft | 285 kts | 144° |
| 2026-05-04 09:40 | 11.31948 | 124.82427 | 8921 ft | 285 kts | 144° |
| 2026-05-04 09:40 | 11.30316 | 124.83558 | 8558 ft | 284 kts | 144° |
| 2026-05-04 09:41 | 11.28673 | 124.84696 | 8191 ft | 283 kts | 144° |
| 2026-05-04 09:42 | 11.15985 | 124.88612 | 6112 ft | 268 kts | 165° |
| 2026-05-04 09:43 | 11.14167 | 124.89014 | 5804 ft | 267 kts | 165° |
| 2026-05-04 09:43 | 11.12355 | 124.89417 | 5496 ft | 265 kts | 165° |
| 2026-05-04 09:43 | 11.10581 | 124.89812 | 5186 ft | 255 kts | 165° |
| 2026-05-04 09:43 | 11.08877 | 124.90190 | 4884 ft | 243 kts | 165° |
| 2026-05-04 09:44 | 11.07267 | 124.90548 | 4603 ft | 231 kts | 165° |
| 2026-05-04 09:44 | 11.05727 | 124.90920 | 4319 ft | 219 kts | 156° |
| 2026-05-04 09:44 | 11.04495 | 124.91722 | 4047 ft | 202 kts | 129° |
| 2026-05-04 09:46 | 11.03500 | 125.00627 | 3112 ft | 183 kts | 61° |
| 2026-05-04 09:46 | 11.04431 | 125.01476 | 2923 ft | 185 kts | 25° |
| 2026-05-04 09:46 | 11.05718 | 125.01689 | 2744 ft | 188 kts | 6° |
| 2026-05-04 09:47 | 11.07035 | 125.01762 | 2560 ft | 188 kts | 6° |
| 2026-05-04 09:47 | 11.08330 | 125.01836 | 2332 ft | 183 kts | 6° |
| 2026-05-04 09:49 | 11.15623 | 125.02307 | 1201 ft | 137 kts | 8° |
| 2026-05-04 09:49 | 11.16581 | 125.02372 | 1024 ft | 137 kts | 8° |
| 2026-05-04 09:49 | 11.17542 | 125.02434 | 844 ft | 136 kts | 6° |
| 2026-05-04 09:51 | 11.22843 | 125.02781 | 20 ft | 46 kts | 4° |
| 2026-05-04 09:51 | 11.23118 | 125.02799 | 19 ft | 29 kts | 4° |
| 2026-05-04 09:51 | 11.23278 | 125.02810 | 19 ft | 21 kts | 4° |
| 2026-05-04 09:51 | 11.23428 | 125.02820 | 19 ft | 21 kts | 4° |
| 2026-05-04 09:52 | 11.23573 | 125.02829 | 19 ft | 17 kts | 4° |
| 2026-05-04 09:52 | 11.23663 | 125.02819 | 19 ft | 9 kts | 335° |
| 2026-05-04 09:52 | 11.23689 | 125.02818 | 19 ft | 1 kts | 77° |
| 2026-05-04 09:52 | 11.23672 | 125.02834 | 19 ft | 4 kts | 169° |
| 2026-05-04 09:53 | 11.23633 | 125.02833 | 19 ft | 6 kts | 183° |
| 2026-05-04 09:53 | 11.23581 | 125.02830 | 19 ft | 7 kts | 183° |
| 2026-05-04 09:53 | 11.23522 | 125.02826 | 19 ft | 9 kts | 184° |
| 2026-05-04 09:53 | 11.23455 | 125.02821 | 19 ft | 10 kts | 184° |
| 2026-05-04 09:54 | 11.23379 | 125.02816 | 19 ft | 11 kts | 184° |
| 2026-05-04 09:54 | 11.23298 | 125.02811 | 19 ft | 12 kts | 184° |
| 2026-05-04 09:54 | 11.23209 | 125.02805 | 19 ft | 13 kts | 184° |
| 2026-05-04 09:54 | 11.23115 | 125.02799 | 19 ft | 13 kts | 184° |
| 2026-05-04 09:55 | 11.23015 | 125.02792 | 20 ft | 14 kts | 184° |
| 2026-05-04 09:55 | 11.22912 | 125.02785 | 20 ft | 15 kts | 184° |
| 2026-05-04 09:55 | 11.22805 | 125.02778 | 20 ft | 15 kts | 183° |
| 2026-05-04 09:55 | 11.22695 | 125.02770 | 20 ft | 16 kts | 184° |
| 2026-05-04 09:56 | 11.22601 | 125.02764 | 20 ft | 9 kts | 184° |
| 2026-05-04 09:56 | 11.22567 | 125.02756 | 21 ft | 3 kts | 228° |
| 2026-05-04 09:56 | 11.22566 | 125.02727 | 20 ft | 5 kts | 283° |
| 2026-05-04 09:56 | 11.22588 | 125.02694 | 20 ft | 5 kts | 316° |
| 2026-05-04 09:57 | 11.22616 | 125.02667 | 20 ft | 5 kts | 316° |
| 2026-05-04 09:57 | 11.22634 | 125.02650 | 20 ft | 1 kts | 317° |